Huvudsida
METAR-TAF:

METAR-TAF

Flygplatser :

Franjo Tuđmans flygplats

Zagreb, Kroatien

latitud: 45-44N, longitud: 016-04E, höjd: 106 m

Aktuellt väderrapport

Denna rapport gjordes för 39 minuter sedan, klockan 12:00 UTC
Vind 10 kt från väst/sydväst, varierande mellan syd/sydväst och väst/nordväst
Temperatur 25°C
Fuktighet 41%
Tryck 1017 hPa
Sikt 10 km eller mer
Inga moln under 1 500 m eller inga cumulonimbus

METAR: LDZA 251200Z 24010KT 200V300 CAVOK 25/11 Q1017 NOSIG

Tid: 14:39 (12:39 UTC)

Väderprognos

Denna rapport gjordes för 1 timme och 14 minuter sedan, klockan 11:25 UTC
Prognos gäller från 25 kl. 12 UTC till 26 kl. 12 UTC
Vind 12 kt från sydväst
Sikt 10 km eller mer
Inga moln under 1 500 m eller inga cumulonimbus
Blir
från 25 kl. 14 UTC till 25 kl. 16 UTC
Vind 8 kt från sydväst
Blir
från 25 kl. 20 UTC till 25 kl. 22 UTC
Vind 4 kt från sydväst

TAF: LDZA 251125Z 2512/2612 23012KT CAVOK TX26/2514Z TN10/2604Z BECMG 2514/2516 23008KT BECMG 2520/2522 23004KT

Aktuella väderrapporter och prognoser från 4000 flygplatser (METAR- och TAF-rapporter).

De tillgängliga stationerna syns som gula och röda prickar på kartan.

För musen över prickarna för att se namnen på stationerna.

Klicka sedan för att få väderrapporter och prognoser.

För att ändra kartan: Klicka på de gröna knapparna med ett svart kors på för att zooma in; den gröna knappen med ett streck på för att zooma ut; eller på de gröna pilarna för angränsande kartor.


METAR-TAF: